createdAt,value
2022-08-25T00:00:23.433Z,67.99
2022-08-25T00:02:55.152Z,68.19
2022-08-25T00:05:29.412Z,68.55
2022-08-25T00:08:01.010Z,68.54
2022-08-25T00:10:30.018Z,68.90
2022-08-25T00:13:00.402Z,68.25
2022-08-25T00:15:29.357Z,68.52
2022-08-25T00:17:58.045Z,68.47
2022-08-25T00:20:26.916Z,68.11
2022-08-25T00:22:56.274Z,68.01
2022-08-25T00:25:25.253Z,67.79
2022-08-25T00:27:53.842Z,67.83
2022-08-25T00:30:24.133Z,68.17
2022-08-25T00:32:55.313Z,67.98
2022-08-25T00:35:27.571Z,68.25
2022-08-25T00:37:56.669Z,67.71
2022-08-25T00:40:26.854Z,67.85
2022-08-25T00:42:56.192Z,68.07
2022-08-25T00:45:29.248Z,67.77
2022-08-25T00:47:59.964Z,67.02
2022-08-25T00:50:29.685Z,67.21
2022-08-25T00:53:02.027Z,66.39
2022-08-25T00:55:32.840Z,66.57
2022-08-25T00:58:06.469Z,66.51
2022-08-25T01:00:40.055Z,67.54
2022-08-25T01:03:09.083Z,67.94
2022-08-25T01:05:38.161Z,67.94
2022-08-25T01:08:09.262Z,68.24
2022-08-25T01:10:41.455Z,68.21
2022-08-25T01:13:18.190Z,68.36
2022-08-25T01:15:49.998Z,68.56
2022-08-25T01:18:18.918Z,68.49
2022-08-25T01:20:51.493Z,68.68
2022-08-25T01:23:20.290Z,68.99
2022-08-25T01:25:53.502Z,68.87
2022-08-25T01:28:22.724Z,68.21
2022-08-25T01:30:52.647Z,68.98
2022-08-25T01:33:21.778Z,69.07
2022-08-25T01:35:51.875Z,69.18
2022-08-25T01:38:21.108Z,69.40
2022-08-25T01:40:52.059Z,69.30
2022-08-25T01:43:28.747Z,69.85
2022-08-25T01:45:58.371Z,70.58
2022-08-25T01:48:27.007Z,70.95
2022-08-25T01:50:57.092Z,70.93
2022-08-25T01:53:29.566Z,70.93
2022-08-25T01:56:09.742Z,70.75
2022-08-25T01:58:41.650Z,70.51
2022-08-25T02:01:12.582Z,70.12
2022-08-25T02:03:43.947Z,70.06
2022-08-25T02:06:17.802Z,70.19
2022-08-25T02:08:46.887Z,70.25
2022-08-25T02:11:16.650Z,70.21
2022-08-25T02:13:45.418Z,70.42
2022-08-25T02:16:20.801Z,70.89
2022-08-25T02:18:49.482Z,71.09
2022-08-25T02:21:19.635Z,71.69
2022-08-25T02:23:48.386Z,72.34
2022-08-25T02:26:19.204Z,72.29
2022-08-25T02:28:48.319Z,72.49
2022-08-25T02:31:18.613Z,73.27
2022-08-25T02:33:47.215Z,72.95
2022-08-25T02:36:16.185Z,72.59
2022-08-25T02:38:46.268Z,72.59
2022-08-25T02:41:17.886Z,72.75
2022-08-25T02:43:48.234Z,72.61
2022-08-25T02:46:18.754Z,72.12
2022-08-25T02:48:48.104Z,71.19
2022-08-25T02:51:17.020Z,70.78
2022-08-25T02:53:47.486Z,70.98
2022-08-25T02:56:16.840Z,70.87
2022-08-25T02:58:46.075Z,70.85
2022-08-25T03:01:16.383Z,70.81
2022-08-25T03:03:46.636Z,71.16
2022-08-25T03:06:17.008Z,71.43
2022-08-25T03:08:47.603Z,71.42
2022-08-25T03:11:16.235Z,71.13
2022-08-25T03:13:45.075Z,71.16
2022-08-25T03:16:14.213Z,71.36
2022-08-25T03:18:43.803Z,70.99
2022-08-25T03:21:13.519Z,70.69
2022-08-25T03:23:44.895Z,70.81
2022-08-25T03:26:32.660Z,71.05
2022-08-25T03:29:05.206Z,71.17
2022-08-25T03:31:34.552Z,70.95
2022-08-25T03:34:03.330Z,70.98
2022-08-25T03:36:32.064Z,70.79
2022-08-25T03:39:00.748Z,70.99
2022-08-25T03:41:32.852Z,71.33
2022-08-25T03:44:02.117Z,71.25
2022-08-25T03:46:34.540Z,71.57
2022-08-25T03:49:04.335Z,71.44
2022-08-25T03:51:35.311Z,71.00
2022-08-25T03:54:05.428Z,70.60
2022-08-25T03:56:35.714Z,70.21
2022-08-25T03:59:09.314Z,70.24
2022-08-25T04:01:38.594Z,70.35
2022-08-25T04:04:08.922Z,69.29
2022-08-25T04:06:37.855Z,69.07
2022-08-25T04:09:06.628Z,67.39
2022-08-25T04:11:36.943Z,66.58
2022-08-25T04:14:06.143Z,65.28
2022-08-25T04:16:36.365Z,66.01
2022-08-25T04:19:09.093Z,65.83
2022-08-25T04:21:39.075Z,64.35
2022-08-25T04:24:08.822Z,63.52
2022-08-25T04:26:41.078Z,62.94
2022-08-25T04:29:11.803Z,61.97
2022-08-25T04:31:41.713Z,62.02
2022-08-25T04:34:28.497Z,62.44
2022-08-25T04:37:00.763Z,63.03
2022-08-25T04:39:29.533Z,62.59
2022-08-25T04:42:00.923Z,62.46
2022-08-25T04:44:31.167Z,62.75
2022-08-25T04:46:59.861Z,62.94
2022-08-25T04:49:28.954Z,63.36
2022-08-25T04:51:57.699Z,63.34
2022-08-25T04:54:26.507Z,63.94
2022-08-25T04:56:58.723Z,63.74
2022-08-25T04:59:30.192Z,64.29
2022-08-25T05:02:02.692Z,64.37
2022-08-25T05:04:32.795Z,64.26
2022-08-25T05:07:01.775Z,63.03
2022-08-25T05:09:32.684Z,61.81
2022-08-25T05:12:02.934Z,59.77
2022-08-25T05:14:33.769Z,57.99
2022-08-25T05:17:02.981Z,54.40
2022-08-25T05:19:31.678Z,52.25
2022-08-25T05:22:00.232Z,52.60
2022-08-25T05:24:29.808Z,53.26
2022-08-25T05:26:58.907Z,53.48
2022-08-25T05:29:27.902Z,52.77
2022-08-25T05:31:58.050Z,51.84
2022-08-25T05:34:26.865Z,51.70
2022-08-25T05:36:57.501Z,51.53
2022-08-25T05:39:26.828Z,51.12
2022-08-25T05:41:55.797Z,50.69
2022-08-25T05:44:24.402Z,49.67
2022-08-25T05:46:53.334Z,49.25
2022-08-25T05:49:23.341Z,48.89
2022-08-25T05:51:51.921Z,47.60
2022-08-25T05:54:21.140Z,47.58
2022-08-25T05:56:49.679Z,47.47
2022-08-25T05:59:18.840Z,47.64
2022-08-25T06:02:04.758Z,46.67
2022-08-25T06:04:36.584Z,46.27
2022-08-25T06:07:07.110Z,46.54
2022-08-25T06:09:35.754Z,46.50
2022-08-25T06:12:04.906Z,45.81
2022-08-25T06:14:36.285Z,45.58
2022-08-25T06:17:05.948Z,45.19
2022-08-25T06:19:37.058Z,45.33
2022-08-25T06:22:08.367Z,44.92
2022-08-25T06:24:37.199Z,44.75
2022-08-25T06:27:06.326Z,44.64
2022-08-25T06:29:35.017Z,44.55
2022-08-25T06:32:03.906Z,44.53
2022-08-25T06:34:32.740Z,44.24
2022-08-25T06:37:03.047Z,43.91
2022-08-25T06:39:31.847Z,43.58
2022-08-25T06:42:00.500Z,43.43
2022-08-25T06:44:29.555Z,43.03
2022-08-25T06:46:58.520Z,42.82
2022-08-25T06:49:30.922Z,42.29
2022-08-25T06:52:03.182Z,42.15
2022-08-25T06:54:31.868Z,41.74
2022-08-25T06:57:00.911Z,41.35
2022-08-25T06:59:32.466Z,41.12
2022-08-25T07:02:01.614Z,40.91
2022-08-25T07:04:32.290Z,40.54
2022-08-25T07:07:02.545Z,40.36
2022-08-25T07:09:31.302Z,39.73
2022-08-25T07:12:00.098Z,39.15
2022-08-25T07:14:28.732Z,39.07
2022-08-25T07:16:58.081Z,38.13
2022-08-25T07:19:30.285Z,37.92
2022-08-25T07:22:01.738Z,38.01
2022-08-25T07:24:31.841Z,37.69
2022-08-25T07:27:00.472Z,37.52
2022-08-25T07:29:33.261Z,37.27
2022-08-25T07:32:02.648Z,36.83
2022-08-25T07:34:52.424Z,36.27
2022-08-25T07:37:45.489Z,36.50
2022-08-25T07:40:15.324Z,36.34
2022-08-25T07:42:44.133Z,36.23
2022-08-25T07:45:13.896Z,36.11
2022-08-25T07:47:44.295Z,35.88
2022-08-25T07:50:14.659Z,35.30
2022-08-25T07:52:44.873Z,34.81
2022-08-25T07:55:24.602Z,34.95
2022-08-25T07:57:56.061Z,34.87
2022-08-25T08:00:28.103Z,34.12
2022-08-25T08:02:57.217Z,34.28
2022-08-25T08:05:26.161Z,33.91
2022-08-25T08:07:54.816Z,33.68
2022-08-25T08:10:47.768Z,33.52
2022-08-25T08:13:18.348Z,32.88
2022-08-25T08:15:48.169Z,32.52
2022-08-25T08:18:17.198Z,32.36
2022-08-25T08:20:48.532Z,31.90
2022-08-25T08:23:17.760Z,32.08
2022-08-25T08:25:48.167Z,32.31
2022-08-25T08:28:17.873Z,32.03
2022-08-25T08:30:53.516Z,31.82
2022-08-25T08:33:24.450Z,31.43
2022-08-25T08:36:05.088Z,30.97
2022-08-25T08:38:34.751Z,30.98
2022-08-25T08:42:09.591Z,30.62
2022-08-25T08:44:39.608Z,30.58
2022-08-25T08:47:13.478Z,30.38
2022-08-25T08:49:48.208Z,29.30
2022-08-25T08:52:20.612Z,29.15
2022-08-25T08:54:52.004Z,28.75
2022-08-25T08:57:27.199Z,28.49
2022-08-25T08:59:59.401Z,28.49
2022-08-25T09:02:39.485Z,28.53
2022-08-25T09:05:21.023Z,28.08
2022-08-25T09:07:54.576Z,27.71
2022-08-25T09:10:24.949Z,27.48
2022-08-25T09:13:00.859Z,27.24
2022-08-25T09:15:51.700Z,28.51
2022-08-25T09:18:29.138Z,27.69
2022-08-25T09:21:05.483Z,27.67
2022-08-25T09:23:43.548Z,27.36
2022-08-25T09:26:23.061Z,27.50
2022-08-25T09:28:56.434Z,26.88
2022-08-25T09:31:29.843Z,26.26
2022-08-25T09:34:00.117Z,26.05
2022-08-25T09:36:29.037Z,26.39
2022-08-25T09:38:57.952Z,26.03
2022-08-25T09:41:42.923Z,26.58
2022-08-25T09:44:21.241Z,26.59
2022-08-25T09:47:02.077Z,26.37
2022-08-25T09:49:37.789Z,25.72
2022-08-25T09:52:33.179Z,25.34
2022-08-25T09:55:21.749Z,25.74
2022-08-25T09:57:55.251Z,25.40
2022-08-25T10:00:28.036Z,25.55
2022-08-25T10:03:13.998Z,26.08
2022-08-25T10:06:02.502Z,25.75
2022-08-25T10:08:34.806Z,25.62
2022-08-25T10:11:08.646Z,25.72
2022-08-25T10:13:41.467Z,25.90
2022-08-25T10:16:24.124Z,25.94
2022-08-25T10:19:05.340Z,25.44
2022-08-25T10:21:34.645Z,25.36
2022-08-25T10:24:05.997Z,25.02
2022-08-25T10:26:45.820Z,25.61
2022-08-25T10:29:28.619Z,25.88
2022-08-25T10:32:01.442Z,25.56
2022-08-25T10:34:39.288Z,25.26
2022-08-25T10:37:18.530Z,25.12
2022-08-25T10:39:55.548Z,25.26
2022-08-25T10:42:37.895Z,24.47
2022-08-25T10:45:36.603Z,25.26
2022-08-25T10:48:22.832Z,24.71
2022-08-25T10:50:57.139Z,24.86
2022-08-25T10:53:30.869Z,24.69
2022-08-25T10:56:09.160Z,24.98
2022-08-25T10:58:59.883Z,25.40
2022-08-25T11:01:43.774Z,25.36
2022-08-25T11:04:17.365Z,25.48
2022-08-25T11:06:54.753Z,25.77
2022-08-25T11:09:26.838Z,25.59
2022-08-25T11:11:58.004Z,26.06
2022-08-25T11:14:34.450Z,25.66
2022-08-25T11:17:08.075Z,25.79
2022-08-25T11:19:38.915Z,26.19
2022-08-25T11:22:14.632Z,26.26
2022-08-25T11:24:58.239Z,26.94
2022-08-25T11:27:32.208Z,27.22
2022-08-25T11:30:07.203Z,27.21
2022-08-25T11:32:37.136Z,26.49
2022-08-25T11:35:12.214Z,26.64
2022-08-25T11:37:47.304Z,25.61
2022-08-25T11:40:37.261Z,26.27
2022-08-25T11:43:16.214Z,26.47
2022-08-25T11:46:03.165Z,26.08
2022-08-25T11:48:40.987Z,26.70
2022-08-25T11:51:12.624Z,26.27
2022-08-25T11:53:42.564Z,26.71
2022-08-25T11:56:12.786Z,26.90
2022-08-25T11:58:46.800Z,26.24
2022-08-25T12:02:11.233Z,26.68
2022-08-25T12:04:45.264Z,26.80
2022-08-25T12:07:22.185Z,26.98
2022-08-25T12:10:21.620Z,26.93
2022-08-25T12:13:16.107Z,26.76
2022-08-25T12:16:00.584Z,27.25
2022-08-25T12:18:51.306Z,27.13
2022-08-25T12:21:34.257Z,27.14
2022-08-25T12:24:16.293Z,27.44
2022-08-25T12:26:50.618Z,27.27
2022-08-25T12:29:27.200Z,27.45
2022-08-25T12:32:14.327Z,27.20
2022-08-25T12:34:55.201Z,26.83
2022-08-25T12:37:25.057Z,27.10
2022-08-25T12:40:02.454Z,26.58
2022-08-25T12:42:38.115Z,26.21
2022-08-25T12:45:16.638Z,26.04
2022-08-25T12:47:49.591Z,26.20
2022-08-25T12:50:40.505Z,26.25
2022-08-25T12:53:16.264Z,26.34
2022-08-25T12:55:50.455Z,26.52
2022-08-25T12:58:19.270Z,26.60
2022-08-25T13:01:04.399Z,27.20
2022-08-25T13:03:54.250Z,27.85
2022-08-25T13:06:43.715Z,27.58
2022-08-25T13:10:00.719Z,27.43
2022-08-25T13:12:34.262Z,27.94
2022-08-25T13:15:02.672Z,28.17
2022-08-25T13:17:34.127Z,28.15
2022-08-25T13:20:21.495Z,27.84
2022-08-25T13:22:57.353Z,27.73
2022-08-25T13:25:32.906Z,28.16
2022-08-25T13:28:06.626Z,27.85
2022-08-25T13:30:43.528Z,27.76
2022-08-25T13:33:20.342Z,27.70
2022-08-25T13:35:50.172Z,27.29
2022-08-25T13:38:20.221Z,27.70
2022-08-25T13:40:51.921Z,28.15
2022-08-25T13:43:23.082Z,27.97
2022-08-25T13:45:56.846Z,28.00
2022-08-25T13:48:34.861Z,27.55
2022-08-25T13:51:23.139Z,27.73
2022-08-25T13:53:55.119Z,27.82
2022-08-25T13:56:35.617Z,27.63
2022-08-25T13:59:21.673Z,27.85
2022-08-25T14:01:51.329Z,27.52
2022-08-25T14:04:51.337Z,27.30
2022-08-25T14:07:33.774Z,27.14
2022-08-25T14:10:07.778Z,26.97
2022-08-25T14:12:42.115Z,26.96
2022-08-25T14:15:33.381Z,26.92
2022-08-25T14:18:05.290Z,26.74
2022-08-25T14:20:34.817Z,27.24
2022-08-25T14:23:09.697Z,27.51
2022-08-25T14:25:42.202Z,27.82
2022-08-25T14:28:14.059Z,26.80
2022-08-25T14:30:47.399Z,27.09
2022-08-25T14:33:17.876Z,27.01
2022-08-25T14:35:50.122Z,27.25
2022-08-25T14:38:20.777Z,27.05
2022-08-25T14:40:50.322Z,27.19
2022-08-25T14:43:23.778Z,26.68
2022-08-25T14:45:54.549Z,26.82
2022-08-25T14:48:27.715Z,27.58
2022-08-25T14:50:58.253Z,27.89
2022-08-25T14:53:29.529Z,28.08
2022-08-25T14:55:59.110Z,28.13
2022-08-25T14:58:33.980Z,28.11
2022-08-25T15:01:06.520Z,28.07
2022-08-25T15:03:38.500Z,28.25
2022-08-25T15:06:07.802Z,28.51
2022-08-25T15:08:57.486Z,28.80
2022-08-25T15:11:26.409Z,28.82
2022-08-25T15:13:58.540Z,28.79
2022-08-25T15:16:33.833Z,28.89
2022-08-25T15:19:06.600Z,28.99
2022-08-25T15:21:36.751Z,28.68
2022-08-25T15:24:06.074Z,29.14
2022-08-25T15:26:41.342Z,29.08
2022-08-25T15:29:10.064Z,30.10
2022-08-25T15:31:40.728Z,30.42
2022-08-25T15:34:11.816Z,30.60
2022-08-25T15:36:40.766Z,30.51
2022-08-25T15:39:11.649Z,30.86
2022-08-25T15:41:40.577Z,31.39
2022-08-25T15:44:12.606Z,31.78
2022-08-25T15:46:46.911Z,31.89
2022-08-25T15:49:20.688Z,31.84
2022-08-25T15:51:52.575Z,31.65
2022-08-25T15:54:21.688Z,31.76
2022-08-25T15:56:50.255Z,32.46
2022-08-25T15:59:21.790Z,32.45
2022-08-25T16:01:54.904Z,32.91
2022-08-25T16:04:24.196Z,32.93
2022-08-25T16:06:53.624Z,33.13
2022-08-25T16:09:24.456Z,32.90
2022-08-25T16:11:55.922Z,33.36
2022-08-25T16:14:27.627Z,33.94
2022-08-25T16:16:59.694Z,33.81
2022-08-25T16:19:29.054Z,34.44
2022-08-25T16:21:58.068Z,34.65
2022-08-25T16:24:26.895Z,34.83
2022-08-25T16:27:00.421Z,34.56
2022-08-25T16:29:40.874Z,34.78
2022-08-25T16:32:13.452Z,35.29
2022-08-25T16:34:42.858Z,35.34
2022-08-25T16:37:15.858Z,34.87
2022-08-25T16:39:46.158Z,35.35
2022-08-25T16:42:15.194Z,35.25
2022-08-25T16:44:43.956Z,35.14
2022-08-25T16:47:17.663Z,35.32
2022-08-25T16:49:49.086Z,35.23
2022-08-25T16:52:35.091Z,35.65
2022-08-25T16:55:19.520Z,35.64
2022-08-25T16:57:49.942Z,36.11
2022-08-25T17:00:22.076Z,36.38
2022-08-25T17:02:54.437Z,36.19
2022-08-25T17:05:23.091Z,36.21
2022-08-25T17:08:05.759Z,36.34
2022-08-25T17:10:37.848Z,36.58
2022-08-25T17:13:09.731Z,36.70
2022-08-25T17:15:41.773Z,37.19
2022-08-25T17:18:12.859Z,36.78
2022-08-25T17:20:43.353Z,36.46
2022-08-25T17:23:12.980Z,36.40
2022-08-25T17:25:43.633Z,36.30
2022-08-25T17:28:13.529Z,36.78
2022-08-25T17:30:45.894Z,36.75
2022-08-25T17:33:16.827Z,37.13
2022-08-25T17:35:54.074Z,37.58
2022-08-25T17:38:26.916Z,37.70
2022-08-25T17:40:59.178Z,37.88
2022-08-25T17:43:28.670Z,38.55
2022-08-25T17:45:58.172Z,38.35
2022-08-25T17:48:29.103Z,38.81
2022-08-25T17:51:02.314Z,38.84
2022-08-25T17:53:31.645Z,39.65
2022-08-25T17:56:01.982Z,39.95
2022-08-25T17:58:32.768Z,39.91
2022-08-25T18:01:02.275Z,40.02
2022-08-25T18:03:32.560Z,40.29
2022-08-25T18:06:01.508Z,40.14
2022-08-25T18:08:35.371Z,40.44
2022-08-25T18:11:04.998Z,41.50
2022-08-25T18:13:33.822Z,41.65
2022-08-25T18:16:02.834Z,41.62
2022-08-25T18:18:34.526Z,41.82
2022-08-25T18:21:07.080Z,41.24
2022-08-25T18:23:35.933Z,41.81
2022-08-25T18:26:04.655Z,40.92
2022-08-25T18:28:35.686Z,41.70
2022-08-25T18:31:04.522Z,40.61
2022-08-25T18:33:34.865Z,40.89
2022-08-25T18:36:04.358Z,41.88
2022-08-25T18:38:50.514Z,40.50
2022-08-25T18:41:27.316Z,40.16
2022-08-25T18:43:57.057Z,41.21
2022-08-25T18:46:26.646Z,42.43
2022-08-25T18:48:56.888Z,43.67
2022-08-25T18:51:25.541Z,46.64
2022-08-25T18:53:54.683Z,47.19
2022-08-25T18:56:28.259Z,48.79
2022-08-25T18:58:57.507Z,48.29
2022-08-25T19:01:26.452Z,47.22
2022-08-25T19:03:58.932Z,45.69
2022-08-25T19:06:27.613Z,45.00
2022-08-25T19:08:56.254Z,44.92
2022-08-25T19:11:25.793Z,44.75
2022-08-25T19:13:55.216Z,45.27
2022-08-25T19:16:34.608Z,47.07
2022-08-25T19:19:08.438Z,48.21
2022-08-25T19:21:38.732Z,49.22
2022-08-25T19:24:08.394Z,53.26
2022-08-25T19:26:37.503Z,53.24
2022-08-25T19:29:09.468Z,51.84
2022-08-25T19:31:39.225Z,51.97
2022-08-25T19:34:11.173Z,52.32
2022-08-25T19:36:42.530Z,49.90
2022-08-25T19:39:12.337Z,46.78
2022-08-25T19:41:42.203Z,50.46
2022-08-25T19:44:12.195Z,49.57
2022-08-25T19:46:43.382Z,50.09
2022-08-25T19:49:16.913Z,50.42
2022-08-25T19:51:50.459Z,50.36
2022-08-25T19:54:22.624Z,51.41
2022-08-25T19:56:54.825Z,51.92
2022-08-25T19:59:40.792Z,53.17
2022-08-25T20:02:15.470Z,53.73
2022-08-25T20:04:49.570Z,53.63
2022-08-25T20:07:20.353Z,53.34
2022-08-25T20:09:49.060Z,52.69
2022-08-25T20:12:18.252Z,51.94
2022-08-25T20:14:47.235Z,51.73
2022-08-25T20:17:24.712Z,52.16
2022-08-25T20:19:58.453Z,51.59
2022-08-25T20:22:28.225Z,51.81
2022-08-25T20:24:58.363Z,51.81
2022-08-25T20:27:30.048Z,51.78
2022-08-25T20:29:59.898Z,51.56
2022-08-25T20:32:33.894Z,51.19
2022-08-25T20:35:05.601Z,51.32
2022-08-25T20:37:37.974Z,51.20
2022-08-25T20:40:08.507Z,50.72
2022-08-25T20:42:41.336Z,49.97
2022-08-25T20:45:13.571Z,50.37
2022-08-25T20:47:44.382Z,51.51
2022-08-25T20:50:15.047Z,52.88
2022-08-25T20:52:44.066Z,54.05
2022-08-25T20:55:13.935Z,54.80
2022-08-25T20:57:42.709Z,54.92
2022-08-25T21:00:12.990Z,57.34
2022-08-25T21:02:41.787Z,57.40
2022-08-25T21:05:10.740Z,59.46
2022-08-25T21:07:41.654Z,61.02
2022-08-25T21:10:14.240Z,62.05
2022-08-25T21:12:45.244Z,62.42
2022-08-25T21:15:18.127Z,62.55
2022-08-25T21:17:50.882Z,62.23
2022-08-25T21:20:19.652Z,62.68
2022-08-25T21:22:49.898Z,63.49
2022-08-25T21:25:19.955Z,63.39
2022-08-25T21:27:49.330Z,63.00
2022-08-25T21:30:19.314Z,62.84
2022-08-25T21:32:53.658Z,62.85
2022-08-25T21:35:23.603Z,62.58
2022-08-25T21:37:54.864Z,62.50
2022-08-25T21:40:24.793Z,62.77
2022-08-25T21:42:53.633Z,62.76
2022-08-25T21:45:22.419Z,63.34
2022-08-25T21:47:51.799Z,64.21
2022-08-25T21:50:21.385Z,64.54
2022-08-25T21:52:54.314Z,64.06
2022-08-25T21:55:25.143Z,64.42
2022-08-25T21:57:54.889Z,64.52
2022-08-25T22:00:24.094Z,64.30
2022-08-25T22:02:53.741Z,63.78
2022-08-25T22:05:22.497Z,63.11
2022-08-25T22:07:51.216Z,61.58
2022-08-25T22:10:21.058Z,59.85
2022-08-25T22:12:53.072Z,61.04
2022-08-25T22:15:23.416Z,61.14
2022-08-25T22:17:52.342Z,61.75
2022-08-25T22:20:21.149Z,62.27
2022-08-25T22:22:49.719Z,63.23
2022-08-25T22:25:18.832Z,63.39
2022-08-25T22:27:48.223Z,63.31
2022-08-25T22:30:29.462Z,63.47
2022-08-25T22:33:01.556Z,64.27
2022-08-25T22:35:33.252Z,65.08
2022-08-25T22:38:02.253Z,65.09
2022-08-25T22:40:36.798Z,65.62
2022-08-25T22:43:05.219Z,65.75
2022-08-25T22:45:36.331Z,65.57
2022-08-25T22:48:06.131Z,65.64
2022-08-25T22:50:36.231Z,65.66
2022-08-25T22:53:05.119Z,65.51
2022-08-25T22:55:33.753Z,65.46
2022-08-25T22:58:02.567Z,65.53
2022-08-25T23:00:31.709Z,65.96
2022-08-25T23:03:01.912Z,66.69
2022-08-25T23:05:30.655Z,67.89
2022-08-25T23:08:00.006Z,69.02
2022-08-25T23:10:28.758Z,70.53
2022-08-25T23:12:57.903Z,70.23
2022-08-25T23:15:26.816Z,70.87
2022-08-25T23:17:55.468Z,70.58
2022-08-25T23:20:44.994Z,71.77
2022-08-25T23:23:14.239Z,71.52
2022-08-25T23:25:42.928Z,71.58
2022-08-25T23:28:11.560Z,71.38
2022-08-25T23:30:40.396Z,71.57
2022-08-25T23:33:18.839Z,72.29
2022-08-25T23:35:59.168Z,73.56
2022-08-25T23:38:31.004Z,74.04
2022-08-25T23:40:59.890Z,74.70
2022-08-25T23:43:28.491Z,74.33
2022-08-25T23:45:57.188Z,73.84
2022-08-25T23:48:26.522Z,73.14
2022-08-25T23:50:56.559Z,73.69
2022-08-25T23:53:26.349Z,74.12
2022-08-25T23:55:55.767Z,74.58
2022-08-25T23:58:25.830Z,74.58
